Time;durP1;ratioP1;P1;durP2;ratioP2;P2;SDS_P1;SDS_P2;PMS_P1;PMS_P2;Temp;Humidity;BMP_temperature;BMP_pressure;BME280_temperature;BME280_humidity;BME280_pressure;Samples;Min_cycle;Max_cycle;Signal;HPM_P1;HPM_P2
2021/06/11 00:01:56;;;;;;;24.25;10.95;;;;;;;11.03;66.09;99767.86;1779123;78;24340;-63
2021/06/11 00:04:23;;;;;;;20.13;10.30;;;;;;;11.06;66.23;99767.70;1780482;79;21018;-63
2021/06/11 00:06:49;;;;;;;22.67;11.00;;;;;;;11.03;66.37;99766.09;1789487;79;21037;-63
2021/06/11 00:09:17;;;;;;;20.80;10.30;;;;;;;11.00;66.44;99765.40;1772961;79;21029;-63
2021/06/11 00:11:45;;;;;;;19.92;9.40;;;;;;;11.01;66.64;99765.34;1781973;78;21067;-64
2021/06/11 00:14:12;;;;;;;20.05;8.68;;;;;;;11.07;66.68;99762.89;1809241;77;20913;-64
2021/06/11 00:16:39;;;;;;;13.03;7.00;;;;;;;11.13;66.76;99765.20;1795829;78;21105;-64
2021/06/11 00:19:06;;;;;;;19.30;10.33;;;;;;;11.13;66.81;99759.97;1790768;78;21043;-64
2021/06/11 00:21:33;;;;;;;15.60;7.35;;;;;;;11.11;66.88;99763.11;1783055;78;21167;-64
2021/06/11 00:24:00;;;;;;;18.87;9.23;;;;;;;11.08;66.94;99760.19;1790617;78;22056;-64
2021/06/11 00:26:26;;;;;;;13.57;8.37;;;;;;;11.05;66.97;99759.50;1788080;78;20968;-64
2021/06/11 00:28:53;;;;;;;9.20;7.17;;;;;;;11.05;67.08;99764.25;1789042;79;21065;-64
2021/06/11 00:31:19;;;;;;;12.82;7.58;;;;;;;11.10;67.16;99766.66;1789323;78;21040;-64
2021/06/11 00:33:46;;;;;;;9.33;7.07;;;;;;;11.14;67.26;99762.95;1793770;78;21521;-64
2021/06/11 00:36:13;;;;;;;11.70;7.17;;;;;;;11.16;67.27;99763.73;1790895;78;21103;-64
2021/06/11 00:38:39;;;;;;;9.60;5.97;;;;;;;11.18;67.36;99769.75;1802512;77;21263;-64
2021/06/11 00:41:06;;;;;;;15.15;7.00;;;;;;;11.18;67.56;99764.52;1798154;78;21567;-65
2021/06/11 00:43:32;;;;;;;14.28;7.80;;;;;;;11.17;67.55;99758.45;1791983;78;20923;-64
2021/06/11 00:45:59;;;;;;;12.10;7.28;;;;;;;11.14;67.68;99762.95;1796030;78;20974;-64
2021/06/11 00:48:26;;;;;;;11.10;6.85;;;;;;;11.10;67.64;99761.43;1797719;78;21476;-64
2021/06/11 00:50:52;;;;;;;12.73;7.45;;;;;;;11.05;67.70;99758.19;1803461;78;20923;-64
2021/06/11 00:53:19;;;;;;;9.43;6.33;;;;;;;11.02;67.81;99755.73;1806151;77;21499;-64
2021/06/11 00:55:47;;;;;;;14.23;8.03;;;;;;;11.00;67.92;99751.03;1779736;78;21081;-64
2021/06/11 00:58:16;;;;;;;12.30;6.97;;;;;;;10.98;68.05;99749.34;1806990;77;27488;-63
2021/06/11 01:00:43;;;;;;;11.08;6.58;;;;;;;11.02;68.17;99742.66;1794255;78;21099;-64
2021/06/11 01:03:11;;;;;;;11.00;6.50;;;;;;;11.06;68.27;99738.97;1790703;78;21008;-64
2021/06/11 01:05:41;;;;;;;12.63;7.20;;;;;;;11.10;68.39;99730.08;1809227;77;20986;-64
2021/06/11 01:08:08;;;;;;;10.03;6.55;;;;;;;11.17;68.38;99724.91;1796067;77;21458;-64
2021/06/11 01:10:35;;;;;;;8.50;6.67;;;;;;;11.21;68.40;99719.94;1809708;77;21547;-64
2021/06/11 01:13:03;;;;;;;10.68;6.53;;;;;;;11.28;68.53;99723.91;1807298;77;21439;-64
2021/06/11 01:15:30;;;;;;;9.58;6.03;;;;;;;11.35;68.55;99726.63;1792563;78;20983;-64
2021/06/11 01:17:57;;;;;;;8.43;5.58;;;;;;;11.39;68.56;99717.69;1798834;77;20970;-64
2021/06/11 01:20:24;;;;;;;8.13;5.87;;;;;;;11.42;68.58;99718.83;1803774;78;21514;-64
2021/06/11 01:23:17;;;;;;;10.30;6.22;;;;;;;11.48;68.62;99720.76;1799707;78;21476;-64
2021/06/11 01:26:23;;;;;;;9.78;6.20;;;;;;;11.53;68.63;99713.53;1743054;80;22360;-64
2021/06/11 01:28:57;;;;;;;9.23;6.03;;;;;;;11.57;68.67;99719.00;1748542;80;21055;-64
2021/06/11 01:31:25;;;;;;;10.93;6.20;;;;;;;11.57;68.71;99726.84;1736647;80;21581;-64
2021/06/11 01:33:57;;;;;;;9.68;5.28;;;;;;;11.58;68.78;99727.22;1737387;81;21040;-64
2021/06/11 01:36:37;;;;;;;6.78;5.22;;;;;;;11.57;68.92;99711.16;1744062;81;21549;-64
2021/06/11 01:39:07;;;;;;;9.48;6.12;;;;;;;11.54;69.04;99702.13;1731791;81;22040;-64
2021/06/11 01:41:35;;;;;;;10.85;5.45;;;;;;;11.53;69.08;99705.69;1742578;80;20945;-64
2021/06/11 01:44:04;;;;;;;7.20;5.60;;;;;;;11.51;69.14;99703.60;1742744;81;21584;-64
2021/06/11 01:46:34;;;;;;;9.63;5.83;;;;;;;11.53;69.23;99699.15;1725335;81;21226;-64
2021/06/11 01:49:03;;;;;;;9.60;5.47;;;;;;;11.57;69.34;99698.08;1784322;78;22348;-65
2021/06/11 01:51:33;;;;;;;8.55;5.53;;;;;;;11.60;69.30;99697.45;1784199;78;21057;-64
2021/06/11 01:54:02;;;;;;;10.20;5.90;;;;;;;11.59;69.29;99706.67;1774263;79;21604;-64
2021/06/11 01:56:30;;;;;;;9.63;6.45;;;;;;;11.61;69.30;99710.06;1782100;79;21093;-65
2021/06/11 01:58:57;;;;;;;10.23;5.97;;;;;;;11.63;69.35;99713.45;1781041;78;20973;-64
2021/06/11 02:01:24;;;;;;;6.70;5.72;;;;;;;11.65;69.48;99708.99;1809356;76;21468;-64
2021/06/11 02:03:53;;;;;;;9.98;5.53;;;;;;;11.67;69.61;99708.43;1841884;77;21498;-64
2021/06/11 02:06:21;;;;;;;6.37;5.40;;;;;;;11.70;69.71;99703.03;1840621;75;20930;-64
2021/06/11 02:08:53;;;;;;;8.98;6.03;;;;;;;11.72;69.83;99710.34;1840926;76;20946;-64
2021/06/11 02:11:21;;;;;;;9.15;5.78;;;;;;;11.76;69.87;99698.81;1837926;77;21595;-64
2021/06/11 02:13:52;;;;;;;6.75;5.58;;;;;;;11.79;69.91;99700.40;1814603;77;21013;-64
2021/06/11 02:16:21;;;;;;;8.10;6.33;;;;;;;11.76;69.89;99697.51;1832127;76;21063;-64
2021/06/11 02:18:49;;;;;;;8.83;6.72;;;;;;;11.81;70.10;99700.70;1830439;77;21045;-64
2021/06/11 02:21:17;;;;;;;;;;;;;;;11.83;70.03;99705.40;1837119;77;20949;-64
2021/06/11 02:23:44;;;;;;;6.60;5.30;;;;;;;11.89;70.26;99711.27;1833280;77;20099;-64
2021/06/11 02:26:13;;;;;;;6.73;6.00;;;;;;;11.92;70.12;99696.72;1839637;76;20930;-64
2021/06/11 02:28:41;;;;;;;10.23;5.97;;;;;;;11.96;70.23;99702.16;1836390;77;22051;-64
2021/06/11 02:31:07;;;;;;;12.13;5.70;;;;;;;12.03;70.35;99698.30;1838647;77;21654;-64
2021/06/11 02:33:35;;;;;;;8.18;5.90;;;;;;;12.10;70.29;99704.91;1836032;77;21028;-64
2021/06/11 02:36:02;;;;;;;9.50;6.10;;;;;;;12.15;70.32;99698.93;1838637;77;20926;-64
2021/06/11 02:38:28;;;;;;;7.53;5.85;;;;;;;12.24;70.41;99712.85;1788733;78;20971;-64
2021/06/11 02:40:58;;;;;;;7.92;5.92;;;;;;;12.36;70.59;99705.26;1774294;79;21119;-64
2021/06/11 02:43:26;;;;;;;9.50;6.17;;;;;;;12.46;70.58;99706.42;1773113;79;20956;-64
2021/06/11 02:46:25;;;;;;;8.53;5.50;;;;;;;12.59;70.70;99699.58;1770801;79;21066;-64
2021/06/11 02:49:08;;;;;;;8.13;6.05;;;;;;;12.72;70.72;99703.20;1777011;79;20999;-64
2021/06/11 02:51:46;;;;;;;8.03;6.03;;;;;;;13.58;71.49;99702.19;1779158;79;21545;-64
2021/06/11 02:54:26;;;;;;;7.55;5.60;;;;;;;14.87;71.24;99705.97;1782474;79;22263;-64
2021/06/11 02:57:26;;;;;;;9.83;5.60;;;;;;;16.14;70.81;99697.82;1781502;79;20949;-65
2021/06/11 02:59:58;;;;;;;10.43;5.20;;;;;;;17.25;69.99;99693.73;1780866;79;21039;-65
2021/06/11 03:02:32;;;;;;;5.80;5.20;;;;;;;18.51;69.56;99700.64;1778595;79;20973;-64
2021/06/11 03:05:01;;;;;;;9.15;5.12;;;;;;;19.59;68.92;99695.28;1784043;79;21058;-66
2021/06/11 03:07:32;;;;;;;8.08;5.15;;;;;;;20.42;67.97;99692.09;1775497;79;21101;-65
2021/06/11 03:10:03;;;;;;;12.23;5.25;;;;;;;21.01;67.17;99697.34;1781341;79;21004;-65
2021/06/11 03:12:33;;;;;;;11.05;4.95;;;;;;;21.59;66.42;99692.48;1784490;79;21016;-65
2021/06/11 03:14:59;;;;;;;8.88;4.80;;;;;;;22.26;66.09;99689.72;1781155;79;21019;-65
2021/06/11 03:17:34;;;;;;;8.80;4.70;;;;;;;22.84;65.32;99694.66;1794145;79;20919;-66
2021/06/11 03:20:05;;;;;;;5.95;4.67;;;;;;;23.33;64.67;99689.80;1791768;78;21021;-66
2021/06/11 03:22:46;;;;;;;9.53;5.45;;;;;;;23.87;64.46;99684.33;1791586;79;20972;-65
2021/06/11 03:25:26;;;;;;;17.67;5.35;;;;;;;24.35;63.57;99683.67;1793679;79;21530;-66
2021/06/11 03:28:29;;;;;;;29.65;6.95;;;;;;;24.78;62.84;99673.77;1790465;78;20985;-65
2021/06/11 03:30:59;;;;;;;11.88;5.75;;;;;;;25.11;62.45;99677.80;1791970;78;20945;-66
2021/06/11 03:33:31;;;;;;;32.67;6.70;;;;;;;25.57;61.47;99676.80;1796854;79;22333;-66
2021/06/11 03:36:07;;;;;;;20.00;6.03;;;;;;;25.87;61.06;99687.77;1786840;78;20991;-66
2021/06/11 03:38:38;;;;;;;12.00;6.03;;;;;;;26.12;59.98;99689.34;1789237;79;20920;-66
2021/06/11 03:41:05;;;;;;;13.45;5.97;;;;;;;26.26;59.79;99680.26;1791371;78;20980;-66
2021/06/11 03:43:34;;;;;;;25.60;6.37;;;;;;;26.70;59.40;99685.06;1795415;78;21121;-65
2021/06/11 03:46:02;;;;;;;19.32;7.20;;;;;;;27.07;58.61;99679.43;1792037;79;21053;-66
2021/06/11 03:48:31;;;;;;;15.28;5.78;;;;;;;27.50;58.49;99679.73;1796044;78;20927;-64
2021/06/11 03:51:00;;;;;;;10.32;6.00;;;;;;;27.97;58.10;99678.58;1791213;78;21045;-63
2021/06/11 03:53:29;;;;;;;21.40;6.03;;;;;;;28.42;57.53;99668.59;1794621;78;20970;-64
2021/06/11 03:56:00;;;;;;;25.45;6.47;;;;;;;28.93;56.08;99672.55;1778495;79;21500;-64
2021/06/11 03:58:42;;;;;;;13.08;5.78;;;;;;;29.13;55.52;99669.58;1785963;79;22053;-64
2021/06/11 04:01:17;;;;;;;20.23;6.08;;;;;;;29.23;54.82;99672.73;1781472;78;21548;-64
2021/06/11 04:03:44;;;;;;;15.13;6.17;;;;;;;29.36;53.88;99673.89;1781936;79;20969;-64
2021/06/11 04:06:24;;;;;;;15.05;5.30;;;;;;;29.44;53.29;99672.39;1784526;79;20975;-64
2021/06/11 04:08:55;;;;;;;7.33;4.92;;;;;;;29.69;52.71;99681.36;1785180;79;21117;-64
2021/06/11 04:11:29;;;;;;;9.68;5.00;;;;;;;30.10;52.24;99676.81;1780005;79;21899;-64
2021/06/11 04:13:58;;;;;;;13.32;5.80;;;;;;;29.97;51.06;99676.78;1767245;79;21520;-64
2021/06/11 04:16:36;;;;;;;52.10;8.78;;;;;;;30.17;50.62;99673.35;1779912;79;20969;-64
2021/06/11 04:19:03;;;;;;;13.40;5.17;;;;;;;30.12;49.94;99676.63;1784716;79;20985;-64
2021/06/11 04:21:33;;;;;;;14.70;4.80;;;;;;;30.11;49.05;99677.67;1782968;78;20991;-64
2021/06/11 04:24:08;;;;;;;11.85;4.78;;;;;;;30.05;48.58;99679.31;1780946;79;21210;-64
2021/06/11 04:26:40;;;;;;;24.70;6.00;;;;;;;30.49;49.12;99674.52;1775541;79;21013;-64
2021/06/11 04:29:10;;;;;;;9.98;4.50;;;;;;;30.74;47.91;99678.30;1786582;78;21550;-64
2021/06/11 04:31:38;;;;;;;11.03;4.15;;;;;;;31.03;47.57;99675.45;1786613;78;21014;-64
2021/06/11 04:34:05;;;;;;;7.08;4.30;;;;;;;31.25;47.49;99666.11;1785277;79;21108;-64
2021/06/11 04:36:34;;;;;;;13.32;4.55;;;;;;;31.77;46.51;99665.76;1782657;79;23218;-64
2021/06/11 04:39:07;;;;;;;14.73;4.35;;;;;;;32.07;46.45;99658.01;1807738;78;21547;-64
2021/06/11 04:41:33;;;;;;;19.00;4.53;;;;;;;32.22;45.21;99663.66;1801024;78;20898;-64
2021/06/11 04:44:04;;;;;;;14.53;4.58;;;;;;;32.13;44.79;99660.38;1804983;78;21473;-64
2021/06/11 04:46:31;;;;;;;19.80;5.28;;;;;;;32.32;44.37;99663.50;1790306;78;20986;-64
2021/06/11 04:48:57;;;;;;;9.03;4.20;;;;;;;32.27;43.78;99634.95;1804912;77;21164;-64
2021/06/11 04:51:25;;;;;;;10.30;4.70;;;;;;;32.75;43.88;99661.50;1799697;77;21248;-64
2021/06/11 04:53:52;;;;;;;40.67;6.37;;;;;;;33.06;43.20;99661.20;1804890;78;21567;-64
2021/06/11 04:56:19;;;;;;;19.45;4.97;;;;;;;33.11;42.52;99662.72;1818668;78;20959;-64
2021/06/11 04:58:51;;;;;;;204.72;18.90;;;;;;;32.83;42.01;99656.89;1799236;77;21005;-64
2021/06/11 05:01:18;;;;;;;61.85;9.58;;;;;;;32.87;41.79;99655.39;1808892;78;21599;-65
2021/06/11 05:03:45;;;;;;;38.55;8.50;;;;;;;33.21;41.39;99652.73;1818098;78;20971;-64
2021/06/11 05:06:12;;;;;;;43.92;6.25;;;;;;;33.17;40.80;99652.36;1773384;78;20997;-64
2021/06/11 05:08:41;;;;;;;60.98;8.90;;;;;;;33.25;40.69;99653.14;1805711;78;21042;-64
2021/06/11 05:11:07;;;;;;;81.90;14.18;;;;;;;33.62;40.39;99648.09;1808280;78;21407;-64
2021/06/11 05:13:34;;;;;;;28.80;6.87;;;;;;;33.87;40.20;99651.27;1805949;78;21541;-64
2021/06/11 05:16:00;;;;;;;42.80;6.20;;;;;;;33.92;39.14;99652.77;1807783;78;20959;-64
2021/06/11 05:18:29;;;;;;;148.57;21.10;;;;;;;34.08;39.30;99648.09;1807591;77;20983;-64
2021/06/11 05:20:57;;;;;;;166.40;16.42;;;;;;;34.43;38.73;99648.78;1811581;78;21096;-64
2021/06/11 05:23:24;;;;;;;113.92;15.18;;;;;;;34.21;38.25;99646.28;1793613;78;20934;-64
2021/06/11 05:25:51;;;;;;;82.60;9.23;;;;;;;34.21;37.90;99644.92;1779065;79;21455;-64
2021/06/11 05:28:21;;;;;;;28.67;5.50;;;;;;;34.00;37.39;99642.98;1780054;80;21060;-64
2021/06/11 05:30:51;;;;;;;78.17;9.63;;;;;;;33.63;37.08;99638.91;1796820;78;21517;-64
2021/06/11 05:33:18;;;;;;;141.00;15.75;;;;;;;33.68;37.02;99642.84;1800593;79;21087;-64
2021/06/11 05:35:45;;;;;;;46.08;6.37;;;;;;;33.51;36.78;99640.69;1799906;78;21005;-64
2021/06/11 05:38:13;;;;;;;214.30;25.00;;;;;;;33.26;35.92;99638.55;1793186;78;21459;-64
2021/06/11 05:40:40;;;;;;;117.65;14.70;;;;;;;33.18;36.36;99636.42;1820050;77;20898;-64
2021/06/11 05:43:07;;;;;;;42.20;6.85;;;;;;;33.36;35.93;99640.23;1816078;78;21496;-64
2021/06/11 05:45:35;;;;;;;86.15;12.20;;;;;;;32.97;35.21;99643.03;1813344;77;21914;-64
2021/06/11 05:48:04;;;;;;;76.30;10.05;;;;;;;32.16;34.83;99645.09;1813287;78;20967;-64
2021/06/11 05:50:33;;;;;;;87.27;11.03;;;;;;;31.97;35.28;99641.95;1816210;78;21066;-63
2021/06/11 05:53:00;;;;;;;70.67;10.13;;;;;;;32.22;35.20;99637.47;1767937;79;21579;-65
2021/06/11 05:55:28;;;;;;;98.60;14.35;;;;;;;32.33;35.26;99639.48;1800363;78;21498;-65
2021/06/11 05:57:55;;;;;;;114.97;13.62;;;;;;;32.33;34.42;99636.78;1805016;78;20974;-65
2021/06/11 06:00:22;;;;;;;90.53;15.88;;;;;;;32.11;35.00;99638.14;1810724;78;21050;-65
2021/06/11 06:02:49;;;;;;;116.28;18.62;;;;;;;32.22;34.68;99637.47;1804282;77;21067;-65
2021/06/11 06:05:16;;;;;;;62.05;9.83;;;;;;;32.23;34.32;99643.69;1790150;78;21057;-65
2021/06/11 06:07:43;;;;;;;36.77;4.70;;;;;;;31.85;34.16;99639.06;1808850;78;21540;-64
2021/06/11 06:10:11;;;;;;;43.90;6.65;;;;;;;31.84;34.52;99640.91;1775108;80;21476;-65
2021/06/11 06:12:38;;;;;;;43.45;5.65;;;;;;;31.83;34.30;99641.13;1783605;78;21015;-65
2021/06/11 06:15:06;;;;;;;144.65;16.55;;;;;;;32.01;34.55;99639.11;1785424;79;22387;-65
2021/06/11 06:17:36;;;;;;;143.00;20.97;;;;;;;32.44;34.44;99643.91;1794371;78;20971;-65
2021/06/11 06:20:08;;;;;;;90.85;15.93;;;;;;;32.66;34.07;99643.89;1814528;78;21536;-64
2021/06/11 06:22:35;;;;;;;28.52;4.92;;;;;;;32.83;34.14;99643.37;1806074;78;21109;-65
2021/06/11 06:25:02;;;;;;;13.95;2.87;;;;;;;32.79;34.05;99646.19;1810415;78;21063;-65
2021/06/11 06:27:29;;;;;;;34.58;6.37;;;;;;;33.02;33.86;99639.68;1817595;78;21102;-63
2021/06/11 06:29:56;;;;;;;95.57;16.07;;;;;;;32.74;32.96;99645.48;1801068;78;20897;-65
2021/06/11 06:32:22;;;;;;;44.67;5.60;;;;;;;32.22;33.49;99641.52;1806197;79;21019;-66
2021/06/11 06:34:49;;;;;;;59.23;7.50;;;;;;;32.43;33.49;99643.58;1796217;79;21032;-65
2021/06/11 06:37:16;;;;;;;33.45;4.10;;;;;;;32.56;33.29;99639.48;1789797;78;21018;-65
2021/06/11 06:39:44;;;;;;;20.32;2.62;;;;;;;32.47;33.18;99636.74;1791234;78;21475;-65
2021/06/11 06:42:10;;;;;;;9.53;2.00;;;;;;;32.23;32.49;99636.41;1788844;78;21095;-65
2021/06/11 06:44:39;;;;;;;12.10;1.70;;;;;;;31.75;32.68;99628.69;1817383;77;20932;-65
2021/06/11 06:47:05;;;;;;;13.88;2.67;;;;;;;31.53;32.41;99634.05;1791513;78;20980;-65
2021/06/11 06:49:34;;;;;;;5.87;1.75;;;;;;;31.44;32.65;99631.57;1817666;78;20940;-64
2021/06/11 06:52:01;;;;;;;96.78;8.98;;;;;;;31.33;32.66;99632.19;1801750;78;21940;-64
2021/06/11 06:54:28;;;;;;;25.20;3.35;;;;;;;31.40;32.70;99633.58;1803167;77;20939;-64
2021/06/11 06:56:54;;;;;;;8.55;2.50;;;;;;;31.49;32.84;99629.61;1796384;78;20993;-65
2021/06/11 06:59:21;;;;;;;9.48;1.67;;;;;;;29.54;30.38;99628.48;1796599;78;21548;-64
2021/06/11 07:01:49;;;;;;;11.73;2.05;;;;;;;29.54;30.38;99628.48;1794815;77;21013;-64
2021/06/11 07:04:18;;;;;;;5.25;1.67;;;;;;;28.45;32.08;99633.33;1802875;78;21098;-66
2021/06/11 07:06:49;;;;;;;10.25;2.02;;;;;;;28.50;32.95;99625.54;1797930;78;20915;-65
2021/06/11 07:09:13;;;;;;;16.55;2.47;;;;;;;28.70;32.86;99629.25;1786878;78;21491;-64
2021/06/11 07:11:40;;;;;;;55.95;5.70;;;;;;;29.11;33.48;99631.30;1777224;78;21034;-64
2021/06/11 07:14:06;;;;;;;19.80;2.90;;;;;;;29.58;33.21;99628.41;1811832;78;21103;-63
2021/06/11 07:16:33;;;;;;;24.65;3.60;;;;;;;29.51;33.00;99628.88;1770893;79;21077;-64
2021/06/11 07:18:59;;;;;;;58.00;7.37;;;;;;;29.50;32.73;99629.09;1778060;79;21015;-65
2021/06/11 07:21:26;;;;;;;53.92;10.85;;;;;;;28.54;32.11;99634.38;1777367;79;21001;-65
2021/06/11 07:23:53;;;;;;;31.00;3.52;;;;;;;27.88;32.74;99627.69;1785378;78;21044;-64
2021/06/11 07:26:20;;;;;;;6.37;1.75;;;;;;;27.36;32.91;99635.31;1777901;78;21643;-64
2021/06/11 07:28:48;;;;;;;23.70;2.35;;;;;;;26.96;33.13;99634.63;1788913;79;21196;-64
2021/06/11 07:31:15;;;;;;;4.53;1.90;;;;;;;26.36;33.68;99642.08;1780204;79;20943;-64
2021/06/11 07:33:42;;;;;;;123.30;17.62;;;;;;;26.02;33.87;99637.05;1784413;79;20997;-63
2021/06/11 07:36:09;;;;;;;14.07;2.33;;;;;;;25.75;34.76;99632.45;1782791;79;20985;-64
2021/06/11 07:38:36;;;;;;;10.18;2.45;;;;;;;25.73;34.72;99637.64;1781466;79;20997;-64
2021/06/11 07:41:03;;;;;;;21.05;3.90;;;;;;;25.29;34.84;99636.73;1790765;79;21465;-63
2021/06/11 07:43:29;;;;;;;24.63;4.08;;;;;;;25.43;35.52;99637.38;1781994;79;20991;-64
2021/06/11 07:45:56;;;;;;;78.75;10.93;;;;;;;25.28;35.45;99635.08;1781729;79;21558;-63
2021/06/11 07:48:23;;;;;;;;;;;;;;;25.02;35.89;99645.42;1789688;79;21023;-63
2021/06/11 07:50:49;;;;;;;;;;;;;;;24.86;36.25;99642.25;1785537;80;20127;-64
2021/06/11 07:53:16;;;;;;;15.65;3.42;;;;;;;24.63;36.45;99635.39;1774338;79;21128;-63
2021/06/11 07:55:43;;;;;;;5.87;1.90;;;;;;;24.39;38.24;99648.66;1779097;80;21005;-64
2021/06/11 07:58:09;;;;;;;;;;;;;;;24.11;37.24;99642.23;1771041;79;21555;-63
2021/06/11 08:00:36;;;;;;;129.15;11.18;;;;;;;24.18;37.81;99645.95;1770225;80;20133;-63
2021/06/11 08:03:03;;;;;;;66.28;6.90;;;;;;;24.39;37.96;99642.81;1773220;80;22230;-64
2021/06/11 08:05:29;;;;;;;110.12;13.48;;;;;;;24.46;37.90;99647.05;1769378;79;21555;-64
2021/06/11 08:07:56;;;;;;;13.88;2.87;;;;;;;24.62;38.23;99644.41;1763618;79;24712;-64
2021/06/11 08:10:23;;;;;;;8.05;2.58;;;;;;;24.72;39.04;99644.24;1776649;79;21368;-65
2021/06/11 08:12:50;;;;;;;26.50;3.77;;;;;;;24.20;38.65;99649.77;1779523;80;20911;-64
2021/06/11 08:15:17;;;;;;;9.33;2.62;;;;;;;24.22;39.46;99648.61;1778279;79;20917;-63
2021/06/11 08:17:43;;;;;;;11.45;2.87;;;;;;;23.83;40.20;99655.79;1779568;78;21881;-63
2021/06/11 08:20:11;;;;;;;16.07;3.10;;;;;;;23.23;40.72;99649.91;1773231;79;21474;-62
2021/06/11 08:22:38;;;;;;;7.83;2.35;;;;;;;23.00;40.99;99652.25;1749826;80;20952;-64
2021/06/11 08:25:09;;;;;;;7.55;2.50;;;;;;;23.11;41.51;99653.00;1776959;80;21074;-63
2021/06/11 08:27:37;;;;;;;7.53;2.25;;;;;;;23.43;41.62;99646.55;1774384;79;20973;-64
2021/06/11 08:30:06;;;;;;;16.07;3.08;;;;;;;23.79;41.68;99641.12;1778503;78;21115;-63
2021/06/11 08:32:32;;;;;;;11.48;2.58;;;;;;;23.66;41.95;99646.02;1780405;79;21041;-62
2021/06/11 08:34:59;;;;;;;5.45;2.40;;;;;;;23.50;41.80;99643.25;1771557;78;20966;-63
2021/06/11 08:37:26;;;;;;;13.62;3.00;;;;;;;23.52;42.28;99650.59;1770658;79;20997;-62
2021/06/11 08:39:53;;;;;;;10.30;2.60;;;;;;;23.56;42.18;99643.98;1767488;78;21017;-63
2021/06/11 08:42:31;;;;;;;7.95;2.50;;;;;;;23.74;42.43;99648.75;1783445;78;21443;-63
2021/06/11 08:45:00;;;;;;;5.33;2.08;;;;;;;23.83;42.51;99634.96;1777152;79;21012;-63
2021/06/11 08:47:29;;;;;;;5.45;2.17;;;;;;;23.78;42.42;99635.46;1780418;78;21032;-63
2021/06/11 08:49:58;;;;;;;42.23;5.50;;;;;;;23.77;42.41;99635.61;1781714;78;20971;-64
2021/06/11 08:52:27;;;;;;;57.60;7.33;;;;;;;24.00;43.05;99634.53;1776369;78;21041;-62
2021/06/11 08:54:56;;;;;;;4.35;2.30;;;;;;;24.61;43.02;99636.05;1773465;79;21080;-63
2021/06/11 08:57:23;;;;;;;3.92;1.85;;;;;;;24.63;42.27;99642.07;1805375;77;21052;-63
2021/06/11 08:59:52;;;;;;;4.92;2.05;;;;;;;24.41;41.96;99635.99;1812896;77;21585;-63
2021/06/11 09:02:23;;;;;;;67.08;8.98;;;;;;;24.25;42.48;99632.27;1805801;78;21046;-63
2021/06/11 09:04:57;;;;;;;27.60;3.72;;;;;;;24.81;43.14;99630.39;1803686;77;20932;-63
2021/06/11 09:07:34;;;;;;;12.60;2.35;;;;;;;25.00;41.89;99628.73;1808612;77;21248;-63
2021/06/11 09:10:05;;;;;;;10.38;2.42;;;;;;;25.29;42.73;99628.72;1811752;77;21113;-63
2021/06/11 09:12:38;;;;;;;27.85;3.80;;;;;;;25.43;41.67;99629.36;1812899;77;21012;-64
2021/06/11 09:15:14;;;;;;;4.22;1.60;;;;;;;25.04;41.96;99635.42;1821215;77;21076;-63
2021/06/11 09:17:48;;;;;;;5.37;1.75;;;;;;;24.77;41.99;99637.41;1809029;77;21132;-64
2021/06/11 09:20:19;;;;;;;7.75;2.08;;;;;;;24.39;42.48;99635.31;1786137;78;21108;-63
2021/06/11 09:22:55;;;;;;;34.25;3.52;;;;;;;24.55;42.25;99638.88;1783595;78;21002;-62
2021/06/11 09:25:36;;;;;;;5.47;1.65;;;;;;;24.77;42.60;99634.73;1788465;78;20928;-63
2021/06/11 09:28:06;;;;;;;7.95;2.20;;;;;;;25.44;42.50;99632.38;1781435;78;21537;-65
2021/06/11 09:30:41;;;;;;;9.10;1.62;;;;;;;25.73;42.13;99637.64;1784092;79;21044;-65
2021/06/11 09:33:12;;;;;;;7.35;1.75;;;;;;;25.36;41.32;99633.73;1780288;79;21094;-64
2021/06/11 09:35:55;;;;;;;3.77;1.85;;;;;;;24.81;41.92;99637.07;1779792;78;21073;-63
2021/06/11 09:38:26;;;;;;;3.20;1.70;;;;;;;24.76;42.03;99638.42;1787585;78;20996;-63
2021/06/11 09:41:04;;;;;;;11.75;2.45;;;;;;;24.87;41.94;99641.73;1775663;79;21046;-66
2021/06/11 09:43:33;;;;;;;6.85;1.70;;;;;;;25.29;42.60;99631.39;1781497;79;21544;-64
2021/06/11 09:46:13;;;;;;;42.43;4.62;;;;;;;25.83;42.02;99628.95;1783049;78;21896;-64
2021/06/11 09:48:49;;;;;;;3.47;1.60;;;;;;;26.11;41.59;99626.14;1807545;78;20998;-62
2021/06/11 09:51:27;;;;;;;8.43;1.57;;;;;;;26.26;41.18;99636.09;1779202;78;21051;-63
2021/06/11 09:53:54;;;;;;;5.72;1.98;;;;;;;25.80;40.32;99638.63;1775216;78;20973;-63
2021/06/11 09:56:25;;;;;;;17.20;3.25;;;;;;;25.10;40.43;99638.75;1786785;78;21024;-64
2021/06/11 09:58:54;;;;;;;4.75;1.75;;;;;;;24.61;40.83;99645.39;1790589;78;21907;-63
2021/06/11 10:01:22;;;;;;;66.72;6.15;;;;;;;24.34;40.95;99628.65;1787017;78;21104;-63
2021/06/11 10:03:51;;;;;;;8.68;1.87;;;;;;;24.03;41.00;99633.73;1809911;77;21020;-63
2021/06/11 10:06:19;;;;;;;6.20;1.92;;;;;;;23.79;41.30;99642.45;1784797;78;20995;-63
2021/06/11 10:08:49;;;;;;;4.55;1.60;;;;;;;23.68;41.67;99634.70;1780314;78;21022;-63
2021/06/11 10:11:21;;;;;;;6.30;1.80;;;;;;;24.11;41.80;99628.91;1787733;78;20985;-63
2021/06/11 10:13:49;;;;;;;5.30;1.75;;;;;;;24.40;41.96;99629.00;1776135;78;20962;-63
2021/06/11 10:16:20;;;;;;;4.65;1.57;;;;;;;24.55;41.73;99619.37;1809512;77;20968;-63
2021/06/11 10:18:49;;;;;;;4.78;1.60;;;;;;;25.05;41.55;99627.73;1804234;77;20997;-63
2021/06/11 10:21:16;;;;;;;7.53;1.87;;;;;;;25.05;40.65;99620.22;1786773;78;20993;-64
2021/06/11 10:23:43;;;;;;;3.27;1.47;;;;;;;25.42;41.17;99619.69;1741804;79;21403;-64
2021/06/11 10:26:12;;;;;;;3.47;1.80;;;;;;;25.63;40.18;99625.82;1800570;77;21040;-64
2021/06/11 10:28:42;;;;;;;4.83;1.42;;;;;;;25.21;40.54;99622.41;1803160;77;20979;-65
2021/06/11 10:31:14;;;;;;;4.33;1.55;;;;;;;24.63;40.80;99618.55;1786691;78;21004;-64
2021/06/11 10:33:50;;;;;;;3.83;1.77;;;;;;;24.26;41.19;99623.30;1778239;79;20949;-64
2021/06/11 10:36:32;;;;;;;6.53;1.70;;;;;;;24.09;41.43;99617.08;1808067;77;21498;-65
2021/06/11 10:39:16;;;;;;;8.38;1.98;;;;;;;23.97;41.55;99626.86;1783395;78;20993;-64
2021/06/11 10:42:08;;;;;;;9.63;2.05;;;;;;;23.96;41.57;99621.20;1800694;77;22247;-65
2021/06/11 10:44:46;;;;;;;8.05;2.02;;;;;;;24.17;40.90;99622.95;1795244;78;21435;-64
2021/06/11 10:47:21;;;;;;;4.97;1.80;;;;;;;24.35;41.55;99620.97;1790068;78;21681;-63
2021/06/11 10:50:04;;;;;;;4.90;1.72;;;;;;;24.63;41.70;99618.55;1776326;78;21140;-63
2021/06/11 10:52:49;;;;;;;9.45;2.40;;;;;;;24.88;41.64;99618.06;1810651;77;20997;-63
2021/06/11 10:55:21;;;;;;;4.92;2.25;;;;;;;24.82;40.68;99614.73;1800992;77;20931;-64
2021/06/11 10:58:00;;;;;;;4.53;1.55;;;;;;;24.63;41.17;99616.71;1779780;78;20906;-64
2021/06/11 11:00:34;;;;;;;3.52;1.92;;;;;;;24.44;41.12;99619.69;1797996;78;21010;-65
2021/06/11 11:03:03;;;;;;;3.55;1.70;;;;;;;24.10;41.35;99620.58;1772640;79;21504;-66
2021/06/11 11:05:39;;;;;;;9.98;2.15;;;;;;;24.27;41.59;99619.61;1811593;77;21012;-66
2021/06/11 11:08:10;;;;;;;12.82;2.37;;;;;;;24.31;41.67;99614.30;1817179;77;21520;-67
2021/06/11 11:10:53;;;;;;;3.37;1.75;;;;;;;24.62;42.01;99620.39;1804458;78;20987;-70
2021/06/11 11:13:29;;;;;;;10.78;1.95;;;;;;;25.12;41.74;99618.05;1804646;78;20901;-67
2021/06/11 11:15:59;;;;;;;4.17;1.50;;;;;;;25.30;41.32;99626.41;1788123;78;21976;-66
2021/06/11 11:18:40;;;;;;;6.35;1.67;;;;;;;25.04;40.92;99614.05;1787387;78;20908;-67
2021/06/11 11:21:26;;;;;;;6.22;1.50;;;;;;;24.88;41.19;99603.38;1785199;79;21033;-68
2021/06/11 11:23:58;;;;;;;8.25;1.72;;;;;;;24.39;40.77;99613.97;1701624;83;21097;-68
2021/06/11 11:26:44;;;;;;;11.20;1.82;;;;;;;24.12;41.08;99610.59;1704672;82;21064;-68
2021/06/11 11:29:12;;;;;;;;;;;;;;;24.08;41.16;99607.89;1705261;82;21828;-66
2021/06/11 11:31:40;;;;;;;5.25;1.60;;;;;;;23.75;41.27;99609.12;1727237;81;21022;-66
2021/06/11 11:34:07;;;;;;;2.95;1.65;;;;;;;23.50;41.76;99607.28;1725811;82;21036;-66
2021/06/11 11:36:35;;;;;;;10.50;1.70;;;;;;;23.45;41.72;99608.59;1696662;83;22419;-66
2021/06/11 11:39:09;;;;;;;4.50;1.90;;;;;;;23.50;41.94;99609.94;1729880;81;21222;-66
2021/06/11 11:41:38;;;;;;;4.30;1.42;;;;;;;23.52;42.15;99603.47;1720614;81;21097;-66
2021/06/11 11:44:05;;;;;;;6.95;2.42;;;;;;;23.64;42.42;99604.05;1714433;81;21004;-66